Noaa Gloria Michelle — KJLW — position and weather

sailwx.info

Track history (hours):
 
Tides and Currents Weather Stations Pressure Air Temp Water Temp Dewpoint Dewpoint Depression Visibility Wind Speed Wind Dir Waves Ship Positions

Noaa Gloria Michelle

Last reported at 2017-Jul-19 20:31 UTC. Time now 2017-Jul-20 18:33 UTC.
Position N 43°31' W 069°28'.

; draft 3 m.

Type: Fishing. MMSI: 338066383.

Date/timePositionNaut miles runAvg speedWind from/ knotsBaromVisibWave heightAir tempDewpointWater temp
2017-Jul-19 20:31N 43°31' W 069°28'1 3.7
2017-Jul-19 20:12N 43°32' W 069°26'1 7.1
2017-Jul-19 19:59N 43°32' W 069°25'4 2.8
2017-Jul-19 18:33N 43°36' W 069°22'0 8.2
2017-Jul-19 18:30N 43°36' W 069°22'  
2017-Jul-17 04:56N 43°38' W 069°44'4 8.1
2017-Jul-17 04:30N 43°38' W 069°49'4 8.1
2017-Jul-17 03:59N 43°38' W 069°55'4 8.2
2017-Jul-17 03:30N 43°38' W 070°00'4 8.3
2017-Jul-17 03:00N 43°37' W 070°06'4 8.5
2017-Jul-17 02:30N 43°37' W 070°12'3 5.9
2017-Jul-17 02:00N 43°39' W 070°15'0 0.4
2017-Jul-17 01:30N 43°39' W 070°15'0 0.0
2017-Jul-17 01:00N 43°39' W 070°15'0 0.0
2017-Jul-17 00:30N 43°39' W 070°15'0 0.0
2017-Jul-16 23:57N 43°39' W 070°15'0 0.0
2017-Jul-16 23:30N 43°39' W 070°15'0 0.0
2017-Jul-16 23:00N 43°39' W 070°15'0 0.0
2017-Jul-16 22:30N 43°39' W 070°15'0 0.0
2017-Jul-16 22:00N 43°39' W 070°15'0 0.0
2017-Jul-16 21:30N 43°39' W 070°15'0 0.0
2017-Jul-16 21:00N 43°39' W 070°15'0 0.0
2017-Jul-16 20:30N 43°39' W 070°15'0 0.0
2017-Jul-16 20:00N 43°39' W 070°15'0 0.0
2017-Jul-16 19:30N 43°39' W 070°15'0 0.0
2017-Jul-16 19:00N 43°39' W 070°15'0 0.0
2017-Jul-16 18:30N 43°39' W 070°15'0 0.0
2017-Jul-16 18:00N 43°39' W 070°15'0 0.0
2017-Jul-16 17:30N 43°39' W 070°15'0 0.0
2017-Jul-16 17:00N 43°39' W 070°15'0 0.0
2017-Jul-16 16:30N 43°39' W 070°15'0 0.0
2017-Jul-16 16:00N 43°39' W 070°15'0 0.0
2017-Jul-16 15:30N 43°39' W 070°15'0 0.0
2017-Jul-16 15:00N 43°39' W 070°15'0 0.0
2017-Jul-16 14:30N 43°39' W 070°15'0 0.0
2017-Jul-16 14:00N 43°39' W 070°15'0 0.0
2017-Jul-16 13:30N 43°39' W 070°15'0 0.0
2017-Jul-16 13:00N 43°39' W 070°15'0 0.0
2017-Jul-16 12:30N 43°39' W 070°15'0 0.0
2017-Jul-16 12:00N 43°39' W 070°15'0 0.0
2017-Jul-16 11:30N 43°39' W 070°15'0 0.0
2017-Jul-16 11:00N 43°39' W 070°15'0 0.0
2017-Jul-16 10:30N 43°39' W 070°15'0 0.0
2017-Jul-16 10:00N 43°39' W 070°15'0 0.0
2017-Jul-16 09:30N 43°39' W 070°15'0 0.0
2017-Jul-16 09:00N 43°39' W 070°15'0 0.0
2017-Jul-16 08:30N 43°39' W 070°15'0 0.0
2017-Jul-16 08:00N 43°39' W 070°15'0 0.0
2017-Jul-16 07:30N 43°39' W 070°15'0 0.0
2017-Jul-16 07:00N 43°39' W 070°15'0 0.0
2017-Jul-16 06:30N 43°39' W 070°15'0 0.0
2017-Jul-16 06:00N 43°39' W 070°15'0 0.0
2017-Jul-16 05:30N 43°39' W 070°15'0 0.0
2017-Jul-16 05:00N 43°39' W 070°15'0 0.0
2017-Jul-16 04:30N 43°39' W 070°15'0 0.0
2017-Jul-16 04:00N 43°39' W 070°15'0 0.0
2017-Jul-16 03:30N 43°39' W 070°15'0 0.0
2017-Jul-16 03:00N 43°39' W 070°15'0 0.0
2017-Jul-16 02:30N 43°39' W 070°15'0 0.0
2017-Jul-16 02:00N 43°39' W 070°15'0 0.0
2017-Jul-16 01:30N 43°39' W 070°15'0 0.0
2017-Jul-16 01:00N 43°39' W 070°15'0 0.0
2017-Jul-16 00:29N 43°39' W 070°15'0 0.0
2017-Jul-16 00:00N 43°39' W 070°15'0 0.0
2017-Jul-15 23:30N 43°39' W 070°15'0 0.0
2017-Jul-15 23:00N 43°39' W 070°15'0 0.0
2017-Jul-15 22:30N 43°39' W 070°15'0 0.0
2017-Jul-15 21:59N 43°39' W 070°15'0 0.0
2017-Jul-15 21:29N 43°39' W 070°15'0 0.0
2017-Jul-15 19:57N 43°39' W 070°15'0 0.0
2017-Jul-15 19:30N 43°39' W 070°15'0 0.0
2017-Jul-15 14:42N 43°39' W 070°15'0 0.0
2017-Jul-15 13:59N 43°39' W 070°15'0 0.0
2017-Jul-15 13:30N 43°39' W 070°15'0 0.0
2017-Jul-15 13:00N 43°39' W 070°15'0 0.0
2017-Jul-15 12:29N 43°39' W 070°15'0 0.0
2017-Jul-15 11:59N 43°39' W 070°15'0 0.0
2017-Jul-15 11:26N 43°39' W 070°15'0 0.0
2017-Jul-15 10:56N 43°39' W 070°15'  
2017-Jul-12 13:04N 42°53' W 070°27'0 2.0
2017-Jul-12 13:00N 42°53' W 070°27'1 1.1
2017-Jul-12 12:23N 42°54' W 070°28'1 2.4
2017-Jul-12 11:54N 42°55' W 070°27'3 4.9
2017-Jul-12 11:17N 42°52' W 070°30'4 8.6
2017-Jul-12 10:50N 42°50' W 070°34'1 2.1
2017-Jul-12 10:30N 42°49' W 070°33'1 1.3
2017-Jul-12 10:00N 42°50' W 070°34'1 1.9
2017-Jul-12 09:30N 42°50' W 070°35'1 1.1
2017-Jul-12 09:00N 42°51' W 070°35'1 2.3
2017-Jul-12 08:30N 42°50' W 070°33'1 2.4
2017-Jul-12 07:58N 42°50' W 070°35'1 1.7
2017-Jul-12 07:30N 42°50' W 070°35'2 4.6
2017-Jul-12 07:00N 42°48' W 070°34'2 4.8
2017-Jul-12 06:30N 42°46' W 070°33'2 4.8
2017-Jul-12 06:00N 42°46' W 070°37'1 2.0
2017-Jul-12 05:30N 42°46' W 070°36'2 4.5
2017-Jul-12 05:00N 42°46' W 070°32'1 2.4
2017-Jul-12 04:30N 42°47' W 070°32'2 4.7
2017-Jul-12 04:00N 42°49' W 070°33'1 1.1
2017-Jul-12 03:30N 42°49' W 070°33'2 4.3
2017-Jul-12 03:00N 42°48' W 070°31'1 2.9
2017-Jul-12 02:30N 42°49' W 070°31'1 1.1
2017-Jul-12 02:00N 42°49' W 070°30'1 2.5
2017-Jul-12 01:30N 42°50' W 070°30'1 1.0
2017-Jul-12 01:00N 42°51' W 070°31'0 0.9
2017-Jul-12 00:28N 42°51' W 070°31'3 3.5
2017-Jul-11 23:36N 42°53' W 070°28'5 3.3
2017-Jul-11 22:03N 42°49' W 070°32'0 4.1
2017-Jul-11 22:00N 42°49' W 070°33'1 1.3
2017-Jul-11 21:30N 42°49' W 070°33'0 0.7
2017-Jul-11 21:00N 42°49' W 070°33'1 2.6
2017-Jul-11 20:30N 42°50' W 070°32'2 3.3
2017-Jul-11 20:00N 42°49' W 070°34'1 1.8
2017-Jul-11 19:18N 42°48' W 070°32'0 0.7
2017-Jul-11 19:00N 42°48' W 070°33'1 1.9
2017-Jul-11 18:28N 42°49' W 070°33'0 0.4
2017-Jul-11 18:00N 42°49' W 070°33'1 1.8
2017-Jul-11 17:30N 42°49' W 070°33'4 8.0
2017-Jul-11 17:00N 42°45' W 070°32'4 8.6
2017-Jul-11 16:30N 42°40' W 070°30'4 8.4
2017-Jul-11 16:00N 42°36' W 070°28'3 5.7
2017-Jul-11 15:30N 42°34' W 070°27'2 3.6
2017-Jul-11 15:00N 42°32' W 070°25'0 0.3
2017-Jul-11 14:30N 42°32' W 070°25'1 2.2
2017-Jul-11 14:00N 42°33' W 070°26'2 4.9
2017-Jul-11 13:30N 42°31' W 070°24'1 2.5
2017-Jul-11 13:00N 42°32' W 070°22'1 2.1
2017-Jul-11 12:30N 42°33' W 070°22'1 1.2
2017-Jul-11 12:00N 42°32' W 070°21'1 1.4
2017-Jul-11 11:30N 42°33' W 070°22'1 2.0
2017-Jul-11 11:00N 42°33' W 070°23'2 2.9
2017-Jul-11 10:29N 42°32' W 070°24'1 2.0
2017-Jul-11 09:52N 42°33' W 070°26'0 1.3
2017-Jul-11 09:30N 42°33' W 070°26'2 3.0
2017-Jul-11 09:00N 42°32' W 070°25'1 2.9
2017-Jul-11 08:30N 42°31' W 070°24'2 4.0
2017-Jul-11 08:00N 42°32' W 070°25'2 4.5
2017-Jul-11 07:30N 42°34' W 070°27'1 2.6
2017-Jul-11 07:00N 42°33' W 070°26'2 3.2
2017-Jul-11 06:30N 42°32' W 070°25'0 0.7
2017-Jul-11 05:53N 42°32' W 070°25'1 3.2
2017-Jul-11 05:30N 42°33' W 070°26'2 3.4
2017-Jul-11 05:00N 42°34' W 070°27'1 1.8
2017-Jul-11 04:30N 42°33' W 070°26'1 2.9
2017-Jul-11 04:00N 42°32' W 070°25'1 1.6
2017-Jul-11 03:26N 42°31' W 070°25'1 3.2
2017-Jul-11 03:00N 42°33' W 070°26'2 3.2
2017-Jul-11 02:30N 42°34' W 070°27'0 0.6
2017-Jul-11 02:00N 42°34' W 070°27'2 3.0
2017-Jul-11 01:30N 42°32' W 070°25'1 2.8
2017-Jul-11 01:00N 42°31' W 070°24'2 4.2
2017-Jul-11 00:30N 42°33' W 070°26'0 0.8
2017-Jul-11 00:00N 42°33' W 070°26'3 6.4
2017-Jul-10 23:30N 42°31' W 070°22'1 1.8
2017-Jul-10 23:00N 42°32' W 070°22'0 1.0
2017-Jul-10 22:30N 42°32' W 070°22'0 0.1
2017-Jul-10 22:00N 42°32' W 070°22'4 7.6
2017-Jul-10 21:30N 42°28' W 070°24'5 9.1
2017-Jul-10 21:00N 42°25' W 070°29'2 4.1
2017-Jul-10 20:30N 42°24' W 070°30'1 1.8
2017-Jul-10 20:00N 42°24' W 070°30'1 1.8
2017-Jul-10 19:30N 42°24' W 070°30'2 3.3
2017-Jul-10 19:00N 42°22' W 070°30'3 2.6
2017-Jul-10 17:58N 42°25' W 070°30'0 0.1
2017-Jul-10 17:30N 42°25' W 070°30'0 0.6
2017-Jul-10 17:00N 42°24' W 070°31'0 0.0
2017-Jul-10 16:24N 42°24' W 070°31'0 0.6
2017-Jul-10 16:00N 42°24' W 070°31'1 2.6
2017-Jul-10 15:30N 42°23' W 070°29'1 1.7
2017-Jul-10 15:00N 42°24' W 070°30'1 2.2
2017-Jul-10 14:30N 42°25' W 070°31'0 0.1
2017-Jul-10 14:00N 42°25' W 070°31'2 4.7
2017-Jul-10 13:30N 42°23' W 070°30'1 1.3
2017-Jul-10 12:59N 42°22' W 070°30'1 1.9
2017-Jul-10 12:14N 42°23' W 070°31'1 3.7
2017-Jul-10 12:00N 42°22' W 070°30'1 2.4
2017-Jul-10 11:30N 42°21' W 070°30'3 6.9
2017-Jul-10 11:00N 42°25' W 070°30'1 1.9
2017-Jul-10 10:30N 42°24' W 070°29'2 4.7
2017-Jul-10 10:00N 42°21' W 070°30'3 4.8
2017-Jul-10 09:21N 42°25' W 070°31'1 3.3
2017-Jul-10 09:00N 42°23' W 070°31'1 2.6
2017-Jul-10 08:30N 42°24' W 070°32'2 3.6
2017-Jul-10 08:00N 42°23' W 070°31'3 4.6
2017-Jul-10 07:22N 42°25' W 070°32'1 3.6
2017-Jul-10 07:00N 42°25' W 070°31'3 6.6
2017-Jul-10 06:30N 42°22' W 070°30'3 5.1
2017-Jul-10 05:55N 42°25' W 070°31'3 6.4
2017-Jul-10 05:30N 42°22' W 070°31'4 8.0
2017-Jul-10 05:00N 42°18' W 070°30'4 8.0
2017-Jul-10 04:28N 42°14' W 070°30'  
Track history (hours):
 
Tides and Currents Weather Stations Pressure Air Temp Water Temp Dewpoint Dewpoint Depression Visibility Wind Speed Wind Dir Waves Ship Positions

Noaa Gloria Michelle

Last reported at 2017-Jul-19 20:31 UTC. Time now 2017-Jul-20 18:33 UTC.
Position N 43°31' W 069°28'.

; draft 3 m.

Type: Fishing. MMSI: 338066383.

Date/timePositionNaut miles runAvg speedWind from/ knotsBaromVisibWave heightAir tempDewpointWater temp
2017-Jul-19 20:31N 43°31' W 069°28'1 3.7
2017-Jul-19 20:12N 43°32' W 069°26'1 7.1
2017-Jul-19 19:59N 43°32' W 069°25'4 2.8
2017-Jul-19 18:33N 43°36' W 069°22'0 8.2
2017-Jul-19 18:30N 43°36' W 069°22'  
2017-Jul-17 04:56N 43°38' W 069°44'4 8.1
2017-Jul-17 04:30N 43°38' W 069°49'4 8.1
2017-Jul-17 03:59N 43°38' W 069°55'4 8.2
2017-Jul-17 03:30N 43°38' W 070°00'4 8.3
2017-Jul-17 03:00N 43°37' W 070°06'4 8.5
2017-Jul-17 02:30N 43°37' W 070°12'3 5.9
2017-Jul-17 02:00N 43°39' W 070°15'0 0.4
2017-Jul-17 01:30N 43°39' W 070°15'0 0.0
2017-Jul-17 01:00N 43°39' W 070°15'0 0.0
2017-Jul-17 00:30N 43°39' W 070°15'0 0.0
2017-Jul-16 23:57N 43°39' W 070°15'0 0.0
2017-Jul-16 23:30N 43°39' W 070°15'0 0.0
2017-Jul-16 23:00N 43°39' W 070°15'0 0.0
2017-Jul-16 22:30N 43°39' W 070°15'0 0.0
2017-Jul-16 22:00N 43°39' W 070°15'0 0.0
2017-Jul-16 21:30N 43°39' W 070°15'0 0.0
2017-Jul-16 21:00N 43°39' W 070°15'0 0.0
2017-Jul-16 20:30N 43°39' W 070°15'0 0.0
2017-Jul-16 20:00N 43°39' W 070°15'0 0.0
2017-Jul-16 19:30N 43°39' W 070°15'0 0.0
2017-Jul-16 19:00N 43°39' W 070°15'0 0.0
2017-Jul-16 18:30N 43°39' W 070°15'0 0.0
2017-Jul-16 18:00N 43°39' W 070°15'0 0.0
2017-Jul-16 17:30N 43°39' W 070°15'0 0.0
2017-Jul-16 17:00N 43°39' W 070°15'0 0.0
2017-Jul-16 16:30N 43°39' W 070°15'0 0.0
2017-Jul-16 16:00N 43°39' W 070°15'0 0.0
2017-Jul-16 15:30N 43°39' W 070°15'0 0.0
2017-Jul-16 15:00N 43°39' W 070°15'0 0.0
2017-Jul-16 14:30N 43°39' W 070°15'0 0.0
2017-Jul-16 14:00N 43°39' W 070°15'0 0.0
2017-Jul-16 13:30N 43°39' W 070°15'0 0.0
2017-Jul-16 13:00N 43°39' W 070°15'0 0.0
2017-Jul-16 12:30N 43°39' W 070°15'0 0.0
2017-Jul-16 12:00N 43°39' W 070°15'0 0.0
2017-Jul-16 11:30N 43°39' W 070°15'0 0.0
2017-Jul-16 11:00N 43°39' W 070°15'0 0.0
2017-Jul-16 10:30N 43°39' W 070°15'0 0.0
2017-Jul-16 10:00N 43°39' W 070°15'0 0.0
2017-Jul-16 09:30N 43°39' W 070°15'0 0.0
2017-Jul-16 09:00N 43°39' W 070°15'0 0.0
2017-Jul-16 08:30N 43°39' W 070°15'0 0.0
2017-Jul-16 08:00N 43°39' W 070°15'0 0.0
2017-Jul-16 07:30N 43°39' W 070°15'0 0.0
2017-Jul-16 07:00N 43°39' W 070°15'0 0.0
2017-Jul-16 06:30N 43°39' W 070°15'0 0.0
2017-Jul-16 06:00N 43°39' W 070°15'0 0.0
2017-Jul-16 05:30N 43°39' W 070°15'0 0.0
2017-Jul-16 05:00N 43°39' W 070°15'0 0.0
2017-Jul-16 04:30N 43°39' W 070°15'0 0.0
2017-Jul-16 04:00N 43°39' W 070°15'0 0.0
2017-Jul-16 03:30N 43°39' W 070°15'0 0.0
2017-Jul-16 03:00N 43°39' W 070°15'0 0.0
2017-Jul-16 02:30N 43°39' W 070°15'0 0.0
2017-Jul-16 02:00N 43°39' W 070°15'0 0.0
2017-Jul-16 01:30N 43°39' W 070°15'0 0.0
2017-Jul-16 01:00N 43°39' W 070°15'0 0.0
2017-Jul-16 00:29N 43°39' W 070°15'0 0.0
2017-Jul-16 00:00N 43°39' W 070°15'0 0.0
2017-Jul-15 23:30N 43°39' W 070°15'0 0.0
2017-Jul-15 23:00N 43°39' W 070°15'0 0.0
2017-Jul-15 22:30N 43°39' W 070°15'0 0.0
2017-Jul-15 21:59N 43°39' W 070°15'0 0.0
2017-Jul-15 21:29N 43°39' W 070°15'0 0.0
2017-Jul-15 19:57N 43°39' W 070°15'0 0.0
2017-Jul-15 19:30N 43°39' W 070°15'0 0.0
2017-Jul-15 14:42N 43°39' W 070°15'0 0.0
2017-Jul-15 13:59N 43°39' W 070°15'0 0.0
2017-Jul-15 13:30N 43°39' W 070°15'0 0.0
2017-Jul-15 13:00N 43°39' W 070°15'0 0.0
2017-Jul-15 12:29N 43°39' W 070°15'0 0.0
2017-Jul-15 11:59N 43°39' W 070°15'0 0.0
2017-Jul-15 11:26N 43°39' W 070°15'0 0.0
2017-Jul-15 10:56N 43°39' W 070°15'  
2017-Jul-12 13:04N 42°53' W 070°27'0 2.0
2017-Jul-12 13:00N 42°53' W 070°27'1 1.1
2017-Jul-12 12:23N 42°54' W 070°28'1 2.4
2017-Jul-12 11:54N 42°55' W 070°27'3 4.9
2017-Jul-12 11:17N 42°52' W 070°30'4 8.6
2017-Jul-12 10:50N 42°50' W 070°34'1 2.1
2017-Jul-12 10:30N 42°49' W 070°33'1 1.3
2017-Jul-12 10:00N 42°50' W 070°34'1 1.9
2017-Jul-12 09:30N 42°50' W 070°35'1 1.1
2017-Jul-12 09:00N 42°51' W 070°35'1 2.3
2017-Jul-12 08:30N 42°50' W 070°33'1 2.4
2017-Jul-12 07:58N 42°50' W 070°35'1 1.7
2017-Jul-12 07:30N 42°50' W 070°35'2 4.6
2017-Jul-12 07:00N 42°48' W 070°34'2 4.8
2017-Jul-12 06:30N 42°46' W 070°33'2 4.8
2017-Jul-12 06:00N 42°46' W 070°37'1 2.0
2017-Jul-12 05:30N 42°46' W 070°36'2 4.5
2017-Jul-12 05:00N 42°46' W 070°32'1 2.4
2017-Jul-12 04:30N 42°47' W 070°32'2 4.7
2017-Jul-12 04:00N 42°49' W 070°33'1 1.1
2017-Jul-12 03:30N 42°49' W 070°33'2 4.3
2017-Jul-12 03:00N 42°48' W 070°31'1 2.9
2017-Jul-12 02:30N 42°49' W 070°31'1 1.1
2017-Jul-12 02:00N 42°49' W 070°30'1 2.5
2017-Jul-12 01:30N 42°50' W 070°30'1 1.0
2017-Jul-12 01:00N 42°51' W 070°31'0 0.9
2017-Jul-12 00:28N 42°51' W 070°31'3 3.5
2017-Jul-11 23:36N 42°53' W 070°28'5 3.3
2017-Jul-11 22:03N 42°49' W 070°32'0 4.1
2017-Jul-11 22:00N 42°49' W 070°33'1 1.3
2017-Jul-11 21:30N 42°49' W 070°33'0 0.7
2017-Jul-11 21:00N 42°49' W 070°33'1 2.6
2017-Jul-11 20:30N 42°50' W 070°32'2 3.3
2017-Jul-11 20:00N 42°49' W 070°34'1 1.8
2017-Jul-11 19:18N 42°48' W 070°32'0 0.7
2017-Jul-11 19:00N 42°48' W 070°33'1 1.9
2017-Jul-11 18:28N 42°49' W 070°33'0 0.4
2017-Jul-11 18:00N 42°49' W 070°33'1 1.8
2017-Jul-11 17:30N 42°49' W 070°33'4 8.0
2017-Jul-11 17:00N 42°45' W 070°32'4 8.6
2017-Jul-11 16:30N 42°40' W 070°30'4 8.4
2017-Jul-11 16:00N 42°36' W 070°28'3 5.7
2017-Jul-11 15:30N 42°34' W 070°27'2 3.6
2017-Jul-11 15:00N 42°32' W 070°25'0 0.3
2017-Jul-11 14:30N 42°32' W 070°25'1 2.2
2017-Jul-11 14:00N 42°33' W 070°26'2 4.9
2017-Jul-11 13:30N 42°31' W 070°24'1 2.5
2017-Jul-11 13:00N 42°32' W 070°22'1 2.1
2017-Jul-11 12:30N 42°33' W 070°22'1 1.2
2017-Jul-11 12:00N 42°32' W 070°21'1 1.4
2017-Jul-11 11:30N 42°33' W 070°22'1 2.0
2017-Jul-11 11:00N 42°33' W 070°23'2 2.9
2017-Jul-11 10:29N 42°32' W 070°24'1 2.0
2017-Jul-11 09:52N 42°33' W 070°26'0 1.3
2017-Jul-11 09:30N 42°33' W 070°26'2 3.0
2017-Jul-11 09:00N 42°32' W 070°25'1 2.9
2017-Jul-11 08:30N 42°31' W 070°24'2 4.0
2017-Jul-11 08:00N 42°32' W 070°25'2 4.5
2017-Jul-11 07:30N 42°34' W 070°27'1 2.6
2017-Jul-11 07:00N 42°33' W 070°26'2 3.2
2017-Jul-11 06:30N 42°32' W 070°25'0 0.7
2017-Jul-11 05:53N 42°32' W 070°25'1 3.2
2017-Jul-11 05:30N 42°33' W 070°26'2 3.4
2017-Jul-11 05:00N 42°34' W 070°27'1 1.8
2017-Jul-11 04:30N 42°33' W 070°26'1 2.9
2017-Jul-11 04:00N 42°32' W 070°25'1 1.6
2017-Jul-11 03:26N 42°31' W 070°25'1 3.2
2017-Jul-11 03:00N 42°33' W 070°26'2 3.2
2017-Jul-11 02:30N 42°34' W 070°27'0 0.6
2017-Jul-11 02:00N 42°34' W 070°27'2 3.0
2017-Jul-11 01:30N 42°32' W 070°25'1 2.8
2017-Jul-11 01:00N 42°31' W 070°24'2 4.2
2017-Jul-11 00:30N 42°33' W 070°26'0 0.8
2017-Jul-11 00:00N 42°33' W 070°26'3 6.4
2017-Jul-10 23:30N 42°31' W 070°22'1 1.8
2017-Jul-10 23:00N 42°32' W 070°22'0 1.0
2017-Jul-10 22:30N 42°32' W 070°22'0 0.1
2017-Jul-10 22:00N 42°32' W 070°22'4 7.6
2017-Jul-10 21:30N 42°28' W 070°24'5 9.1
2017-Jul-10 21:00N 42°25' W 070°29'2 4.1
2017-Jul-10 20:30N 42°24' W 070°30'1 1.8
2017-Jul-10 20:00N 42°24' W 070°30'1 1.8
2017-Jul-10 19:30N 42°24' W 070°30'2 3.3
2017-Jul-10 19:00N 42°22' W 070°30'3 2.6
2017-Jul-10 17:58N 42°25' W 070°30'0 0.1
2017-Jul-10 17:30N 42°25' W 070°30'0 0.6
2017-Jul-10 17:00N 42°24' W 070°31'0 0.0
2017-Jul-10 16:24N 42°24' W 070°31'0 0.6
2017-Jul-10 16:00N 42°24' W 070°31'1 2.6
2017-Jul-10 15:30N 42°23' W 070°29'1 1.7
2017-Jul-10 15:00N 42°24' W 070°30'1 2.2
2017-Jul-10 14:30N 42°25' W 070°31'0 0.1
2017-Jul-10 14:00N 42°25' W 070°31'2 4.7
2017-Jul-10 13:30N 42°23' W 070°30'1 1.3
2017-Jul-10 12:59N 42°22' W 070°30'1 1.9
2017-Jul-10 12:14N 42°23' W 070°31'1 3.7
2017-Jul-10 12:00N 42°22' W 070°30'1 2.4
2017-Jul-10 11:30N 42°21' W 070°30'3 6.9
2017-Jul-10 11:00N 42°25' W 070°30'1 1.9
2017-Jul-10 10:30N 42°24' W 070°29'2 4.7
2017-Jul-10 10:00N 42°21' W 070°30'3 4.8
2017-Jul-10 09:21N 42°25' W 070°31'1 3.3
2017-Jul-10 09:00N 42°23' W 070°31'1 2.6
2017-Jul-10 08:30N 42°24' W 070°32'2 3.6
2017-Jul-10 08:00N 42°23' W 070°31'3 4.6
2017-Jul-10 07:22N 42°25' W 070°32'1 3.6
2017-Jul-10 07:00N 42°25' W 070°31'3 6.6
2017-Jul-10 06:30N 42°22' W 070°30'3 5.1
2017-Jul-10 05:55N 42°25' W 070°31'3 6.4
2017-Jul-10 05:30N 42°22' W 070°31'4 8.0
2017-Jul-10 05:00N 42°18' W 070°30'4 8.0
2017-Jul-10 04:28N 42°14' W 070°30'  

Dump ship's entire track history